createdAt,value
2019-04-11T00:01:33.886Z,5.80
2019-04-11T00:03:54.764Z,5.90
2019-04-11T00:06:29.635Z,6.10
2019-04-11T00:09:00.609Z,5.87
2019-04-11T00:11:30.231Z,5.83
2019-04-11T00:14:01.479Z,5.90
2019-04-11T00:16:35.561Z,5.27
2019-04-11T00:19:05.210Z,5.95
2019-04-11T00:21:37.811Z,5.53
2019-04-11T00:24:07.179Z,5.90
2019-04-11T00:26:36.576Z,6.05
2019-04-11T00:29:10.115Z,5.90
2019-04-11T00:31:39.076Z,6.25
2019-04-11T00:34:10.944Z,6.33
2019-04-11T00:36:40.825Z,6.30
2019-04-11T00:39:15.245Z,6.22
2019-04-11T00:41:43.460Z,6.45
2019-04-11T00:44:12.919Z,6.28
2019-04-11T00:46:42.630Z,6.30
2019-04-11T00:49:12.369Z,6.25
2019-04-11T00:51:42.337Z,6.40
2019-04-11T00:54:11.762Z,6.28
2019-04-11T00:56:42.278Z,6.22
2019-04-11T00:59:16.297Z,6.50
2019-04-11T01:01:43.233Z,6.10
2019-04-11T01:04:13.715Z,6.65
2019-04-11T01:06:43.194Z,6.78
2019-04-11T01:09:12.792Z,6.40
2019-04-11T01:11:42.319Z,6.42
2019-04-11T01:14:11.752Z,6.80
2019-04-11T01:16:46.961Z,6.42
2019-04-11T01:19:16.904Z,6.70
2019-04-11T01:21:48.743Z,6.60
2019-04-11T01:24:17.985Z,6.65
2019-04-11T01:26:47.633Z,7.08
2019-04-11T01:29:17.575Z,6.17
2019-04-11T01:31:51.592Z,6.47
2019-04-11T01:34:21.387Z,6.45
2019-04-11T01:36:51.294Z,6.87
2019-04-11T01:39:41.307Z,6.75
2019-04-11T01:42:11.147Z,6.85
2019-04-11T01:44:41.023Z,6.95
2019-04-11T01:47:13.041Z,6.40
2019-04-11T01:49:42.356Z,5.30
2019-04-11T01:52:11.909Z,6.80
2019-04-11T01:54:41.252Z,6.35
2019-04-11T01:57:11.711Z,7.20
2019-04-11T01:59:41.756Z,6.85
2019-04-11T02:02:46.490Z,6.75
2019-04-11T02:05:35.062Z,7.27
2019-04-11T02:08:04.644Z,6.80
2019-04-11T02:10:34.987Z,7.47
2019-04-11T02:13:09.929Z,7.30
2019-04-11T02:15:38.684Z,7.27
2019-04-11T02:18:08.166Z,7.22
2019-04-11T02:20:38.990Z,7.12
2019-04-11T02:23:19.944Z,6.95
2019-04-11T02:26:03.180Z,7.40
2019-04-11T02:28:32.872Z,7.08
2019-04-11T02:31:04.558Z,7.80
2019-04-11T02:33:34.849Z,7.45
2019-04-11T02:36:05.199Z,7.35
2019-04-11T02:38:37.338Z,7.30
2019-04-11T02:41:08.662Z,7.60
2019-04-11T02:43:42.065Z,7.35
2019-04-11T02:46:22.021Z,7.75
2019-04-11T02:48:42.495Z,7.70
2019-04-11T02:51:14.573Z,7.62
2019-04-11T02:53:45.180Z,7.53
2019-04-11T02:56:14.953Z,7.87
2019-04-11T02:58:46.338Z,7.60
2019-04-11T03:01:15.828Z,7.93
2019-04-11T03:03:51.818Z,7.83
2019-04-11T03:06:33.257Z,7.97
2019-04-11T03:08:55.051Z,7.80
2019-04-11T03:11:26.085Z,8.08
2019-04-11T03:13:58.166Z,8.30
2019-04-11T03:16:39.336Z,7.97
2019-04-11T03:22:54.179Z,7.95
2019-04-11T03:45:11.395Z,8.70
2019-04-11T03:47:35.496Z,7.95
2019-04-11T03:50:00.729Z,8.83
2019-04-11T03:52:24.263Z,8.23
2019-04-11T03:54:56.271Z,8.13
2019-04-11T03:57:27.558Z,9.00
2019-04-11T03:59:58.610Z,8.50
2019-04-11T04:02:28.373Z,8.75
2019-04-11T04:04:59.173Z,8.73
2019-04-11T04:07:29.678Z,8.75
2019-04-11T04:10:00.455Z,8.83
2019-04-11T04:12:31.303Z,8.95
2019-04-11T04:15:47.454Z,8.63
2019-04-11T04:18:23.919Z,8.10
2019-04-11T04:21:19.486Z,9.33
2019-04-11T04:23:51.899Z,9.08
2019-04-11T04:26:22.835Z,8.90
2019-04-11T04:28:53.467Z,8.95
2019-04-11T04:31:24.314Z,8.73
2019-04-11T04:33:55.389Z,9.58
2019-04-11T04:36:27.258Z,8.30
2019-04-11T04:38:59.275Z,8.58
2019-04-11T04:41:38.587Z,8.77
2019-04-11T04:46:47.108Z,9.15
2019-04-11T04:49:02.589Z,9.20
2019-04-11T04:51:31.970Z,9.03
2019-04-11T04:54:01.468Z,9.63
2019-04-11T04:56:32.276Z,9.68
2019-04-11T04:59:02.714Z,9.15
2019-04-11T05:01:32.508Z,9.83
2019-04-11T05:04:02.247Z,9.20
2019-04-11T05:06:32.329Z,9.85
2019-04-11T05:09:01.899Z,9.28
2019-04-11T05:11:31.191Z,8.60
2019-04-11T05:14:00.992Z,9.25
2019-04-11T05:16:30.532Z,8.93
2019-04-11T05:19:08.540Z,9.05
2019-04-11T05:21:37.839Z,9.40
2019-04-11T05:24:07.189Z,8.78
2019-04-11T05:26:36.483Z,9.58
2019-04-11T05:29:05.858Z,9.60
2019-04-11T05:31:35.121Z,9.43
2019-04-11T05:34:06.327Z,9.58
2019-04-11T05:36:36.606Z,10.00
2019-04-11T05:39:08.772Z,10.30
2019-04-11T05:41:42.077Z,9.65
2019-04-11T05:44:10.867Z,9.30
2019-04-11T05:46:49.244Z,9.95
2019-04-11T05:49:29.078Z,9.63
2019-04-11T05:52:00.840Z,9.40
2019-04-11T05:54:38.700Z,9.10
2019-04-11T05:57:07.116Z,9.80
2019-04-11T05:59:39.829Z,9.73
2019-04-11T06:02:15.691Z,9.58
2019-04-11T06:04:52.897Z,9.95
2019-04-11T06:07:50.547Z,9.88
2019-04-11T06:10:24.419Z,9.97
2019-04-11T06:13:05.365Z,9.18
2019-04-11T06:15:47.497Z,10.23
2019-04-11T06:18:37.811Z,9.70
2019-04-11T06:21:19.961Z,10.03
2019-04-11T06:24:08.407Z,9.38
2019-04-11T06:26:59.731Z,9.88
2019-04-11T06:29:51.201Z,10.00
2019-04-11T06:32:48.597Z,9.55
2019-04-11T06:35:36.497Z,9.70
2019-04-11T06:38:34.387Z,10.13
2019-04-11T06:41:14.462Z,9.80
2019-04-11T06:43:53.463Z,9.95
2019-04-11T06:46:54.086Z,10.15
2019-04-11T06:49:36.817Z,9.75
2019-04-11T06:52:08.558Z,10.32
2019-04-11T06:55:10.870Z,9.70
2019-04-11T06:57:56.353Z,10.30
2019-04-11T07:00:27.995Z,10.60
2019-04-11T07:02:59.903Z,10.40
2019-04-11T07:05:31.209Z,10.53
2019-04-11T07:08:05.556Z,10.70
2019-04-11T07:14:22.489Z,10.85
2019-04-11T07:17:10.615Z,10.58
2019-04-11T07:19:58.244Z,10.32
2019-04-11T07:22:45.209Z,10.98
2019-04-11T07:25:39.524Z,11.07
2019-04-11T07:28:50.264Z,11.05
2019-04-11T07:31:44.613Z,10.40
2019-04-11T07:37:36.794Z,10.85
2019-04-11T07:40:35.329Z,11.18
2019-04-11T07:43:22.544Z,10.88
2019-04-11T07:46:26.881Z,11.12
2019-04-11T07:49:01.878Z,11.18
2019-04-11T07:51:32.682Z,11.12
2019-04-11T07:54:07.025Z,10.98
2019-04-11T07:57:04.853Z,11.63
2019-04-11T07:59:53.399Z,10.98
2019-04-11T08:02:45.609Z,12.07
2019-04-11T08:05:44.619Z,11.50
2019-04-11T08:08:32.404Z,11.78
2019-04-11T08:11:47.808Z,11.53
2019-04-11T08:14:39.025Z,12.00
2019-04-11T08:17:30.020Z,11.83
2019-04-11T08:20:09.899Z,11.73
2019-04-11T08:22:51.478Z,11.88
2019-04-11T08:25:47.316Z,11.60
2019-04-11T08:28:17.034Z,11.45
2019-04-11T08:31:11.366Z,11.60
2019-04-11T08:34:15.193Z,11.48
2019-04-11T08:44:26.000Z,15.53
2019-04-11T08:53:44.951Z,12.23
2019-04-11T08:56:40.301Z,42.27
2019-04-11T08:59:47.969Z,11.68
2019-04-11T09:05:33.223Z,14.83
2019-04-11T09:11:40.625Z,10.53
2019-04-11T09:17:38.765Z,11.80
2019-04-11T09:20:46.261Z,10.78
2019-04-11T09:23:21.762Z,12.25
2019-04-11T09:26:11.857Z,15.58
2019-04-11T09:28:54.466Z,10.20
2019-04-11T09:31:58.029Z,13.13
2019-04-11T09:37:40.017Z,9.45
2019-04-11T09:40:28.045Z,10.10
2019-04-11T09:43:15.818Z,8.95
2019-04-11T09:46:06.550Z,10.13
2019-04-11T09:48:51.846Z,9.20
2019-04-11T09:51:40.429Z,9.05
2019-04-11T09:54:33.644Z,8.98
2019-04-11T09:57:28.970Z,8.45
2019-04-11T10:00:18.460Z,8.53
2019-04-11T10:03:08.732Z,8.85
2019-04-11T10:06:15.941Z,9.73
2019-04-11T10:08:49.502Z,8.73
2019-04-11T10:11:37.925Z,8.00
2019-04-11T10:14:13.539Z,8.65
2019-04-11T10:17:04.454Z,9.85
2019-04-11T10:19:42.433Z,9.05
2019-04-11T10:22:34.096Z,10.28
2019-04-11T10:25:16.878Z,10.20
2019-04-11T10:28:15.456Z,10.50
2019-04-11T10:31:06.367Z,9.73
2019-04-11T10:33:57.882Z,9.05
2019-04-11T10:36:43.909Z,10.58
2019-04-11T10:39:31.333Z,10.75
2019-04-11T10:42:04.297Z,11.25
2019-04-11T10:45:08.052Z,10.58
2019-04-11T10:47:51.353Z,10.25
2019-04-11T10:50:38.427Z,10.15
2019-04-11T10:53:37.330Z,9.80
2019-04-11T10:56:06.712Z,10.00
2019-04-11T10:58:55.438Z,8.88
2019-04-11T11:01:48.402Z,9.95
2019-04-11T11:05:17.928Z,11.97
2019-04-11T11:07:55.179Z,11.60
2019-04-11T11:10:31.329Z,10.90
2019-04-11T11:13:27.022Z,12.85
2019-04-11T11:15:58.263Z,11.43
2019-04-11T11:19:29.907Z,14.98
2019-04-11T11:21:37.460Z,21.82
2019-04-11T11:24:50.386Z,17.92
2019-04-11T11:27:22.237Z,11.87
2019-04-11T11:30:13.866Z,10.00
2019-04-11T11:32:45.571Z,10.15
2019-04-11T11:35:49.968Z,9.30
2019-04-11T11:38:23.969Z,11.18
2019-04-11T11:41:20.678Z,11.40
2019-04-11T11:43:48.711Z,10.45
2019-04-11T11:46:40.650Z,11.67
2019-04-11T11:49:37.669Z,12.43
2019-04-11T11:52:11.255Z,12.40
2019-04-11T11:54:48.186Z,11.45
2019-04-11T11:57:22.747Z,11.50
2019-04-11T12:00:17.092Z,11.60
2019-04-11T12:02:53.787Z,11.12
2019-04-11T12:05:32.846Z,12.87
2019-04-11T12:08:33.043Z,13.13
2019-04-11T12:11:06.064Z,12.85
2019-04-11T12:14:12.634Z,12.47
2019-04-11T12:17:01.982Z,12.70
2019-04-11T12:19:45.678Z,12.47
2019-04-11T12:22:04.365Z,11.48
2019-04-11T12:24:42.841Z,11.85
2019-04-11T12:27:37.131Z,11.25
2019-04-11T12:30:37.810Z,11.68
2019-04-11T12:33:14.027Z,12.63
2019-04-11T12:35:48.656Z,13.55
2019-04-11T12:38:43.157Z,13.22
2019-04-11T12:41:25.631Z,12.03
2019-04-11T12:44:13.906Z,11.95
2019-04-11T12:47:20.413Z,12.07
2019-04-11T12:50:07.518Z,12.63
2019-04-11T12:52:51.105Z,12.10
2019-04-11T12:55:28.872Z,11.85
2019-04-11T12:58:16.262Z,12.05
2019-04-11T13:00:55.615Z,11.88
2019-04-11T13:03:42.708Z,12.18
2019-04-11T13:07:00.641Z,12.35
2019-04-11T13:10:40.204Z,12.15
2019-04-11T13:12:49.596Z,14.58
2019-04-11T13:15:25.140Z,11.83
2019-04-11T13:18:22.562Z,13.32
2019-04-11T13:21:42.981Z,13.65
2019-04-11T13:24:47.519Z,13.53
2019-04-11T13:27:39.186Z,14.78
2019-04-11T13:30:29.297Z,13.90
2019-04-11T13:33:00.908Z,13.43
2019-04-11T13:38:47.664Z,13.85
2019-04-11T13:41:50.646Z,13.80
2019-04-11T13:44:30.839Z,12.88
2019-04-11T13:47:29.595Z,13.70
2019-04-11T13:50:04.065Z,12.75
2019-04-11T13:52:53.313Z,11.80
2019-04-11T13:55:27.996Z,13.47
2019-04-11T13:58:15.356Z,12.82
2019-04-11T14:01:21.623Z,14.38
2019-04-11T14:04:38.640Z,13.53
2019-04-11T14:07:30.154Z,13.03
2019-04-11T14:10:25.620Z,14.30
2019-04-11T14:13:07.376Z,13.35
2019-04-11T14:15:47.228Z,12.23
2019-04-11T14:18:42.277Z,14.20
2019-04-11T14:21:15.869Z,19.20
2019-04-11T14:26:49.676Z,13.20
2019-04-11T14:29:49.709Z,12.45
2019-04-11T14:32:35.182Z,12.60
2019-04-11T14:35:18.137Z,12.93
2019-04-11T14:39:14.750Z,12.80
2019-04-11T14:41:13.933Z,13.20
2019-04-11T14:43:51.267Z,13.13
2019-04-11T14:47:16.832Z,12.93
2019-04-11T14:50:24.534Z,12.68
2019-04-11T14:53:16.927Z,13.43
2019-04-11T14:55:48.986Z,12.53
2019-04-11T14:58:35.488Z,12.78
2019-04-11T15:01:07.829Z,12.50
2019-04-11T15:03:54.631Z,13.08
2019-04-11T15:06:37.152Z,12.60
2019-04-11T15:09:32.279Z,12.88
2019-04-11T15:12:20.788Z,13.18
2019-04-11T15:15:21.541Z,13.38
2019-04-11T15:17:57.200Z,13.93
2019-04-11T15:20:55.916Z,12.73
2019-04-11T15:23:31.166Z,12.47
2019-04-11T15:26:18.882Z,13.20
2019-04-11T15:29:13.598Z,13.03
2019-04-11T15:34:35.836Z,12.63
2019-04-11T15:37:28.103Z,12.50
2019-04-11T15:40:11.890Z,12.95
2019-04-11T15:42:58.835Z,12.50
2019-04-11T15:45:46.481Z,12.93
2019-04-11T15:48:37.164Z,12.93
2019-04-11T15:51:43.761Z,12.20
2019-04-11T15:54:32.056Z,13.22
2019-04-11T15:57:20.280Z,12.47
2019-04-11T16:00:07.232Z,12.58
2019-04-11T16:02:58.746Z,11.97
2019-04-11T16:05:49.964Z,12.47
2019-04-11T16:08:43.452Z,12.03
2019-04-11T16:11:29.224Z,12.78
2019-04-11T16:14:05.267Z,12.30
2019-04-11T16:17:02.865Z,12.40
2019-04-11T16:19:50.123Z,12.28
2019-04-11T16:22:55.374Z,13.45
2019-04-11T16:25:28.940Z,13.45
2019-04-11T16:28:13.833Z,13.45
2019-04-11T16:30:52.626Z,13.18
2019-04-11T16:33:54.348Z,12.63
2019-04-11T16:36:38.854Z,12.43
2019-04-11T16:39:41.621Z,12.50
2019-04-11T16:45:42.992Z,12.63
2019-04-11T16:53:52.792Z,13.28
2019-04-11T16:56:37.613Z,12.30
2019-04-11T17:01:06.667Z,12.45
2019-04-11T17:02:24.269Z,12.45
2019-04-11T17:04:41.079Z,12.55
2019-04-11T17:07:29.451Z,12.82
2019-04-11T17:10:02.626Z,12.23
2019-04-11T17:15:01.666Z,12.15
2019-04-11T17:17:37.329Z,12.15
2019-04-11T17:20:08.488Z,11.98
2019-04-11T17:22:37.982Z,11.50
2019-04-11T17:25:19.784Z,12.60
2019-04-11T17:27:39.240Z,12.13
2019-04-11T17:30:14.949Z,11.55
2019-04-11T17:32:46.397Z,12.20
2019-04-11T17:35:19.950Z,11.80
2019-04-11T17:37:49.285Z,11.85
2019-04-11T17:40:18.614Z,11.67
2019-04-11T17:42:48.051Z,11.93
2019-04-11T17:45:31.915Z,12.10
2019-04-11T17:47:50.379Z,11.90
2019-04-11T17:50:22.939Z,12.27
2019-04-11T17:56:49.895Z,11.68
2019-04-11T17:59:06.656Z,11.48
2019-04-11T18:01:39.207Z,11.63
2019-04-11T18:05:11.195Z,11.35
2019-04-11T18:06:47.081Z,11.03
2019-04-11T18:09:13.103Z,11.75
2019-04-11T18:12:07.816Z,10.37
2019-04-11T18:17:52.174Z,11.03
2019-04-11T18:20:21.801Z,10.40
2019-04-11T18:22:51.320Z,11.15
2019-04-11T18:25:21.479Z,10.43
2019-04-11T18:27:53.305Z,11.15
2019-04-11T18:30:23.341Z,11.50
2019-04-11T18:32:53.268Z,10.75
2019-04-11T18:35:22.664Z,10.70
2019-04-11T18:37:52.066Z,10.25
2019-04-11T18:40:23.756Z,11.05
2019-04-11T18:42:53.124Z,10.63
2019-04-11T18:51:38.493Z,10.60
2019-04-11T18:54:34.666Z,11.18
2019-04-11T18:57:04.162Z,11.45
2019-04-11T18:59:33.991Z,11.70
2019-04-11T19:02:04.022Z,11.38
2019-04-11T19:04:33.355Z,12.03
2019-04-11T19:07:46.930Z,11.35
2019-04-11T19:10:16.357Z,11.20
2019-04-11T19:12:46.425Z,11.03
2019-04-11T19:15:17.095Z,11.90
2019-04-11T19:17:47.178Z,10.72
2019-04-11T19:20:19.133Z,12.07
2019-04-11T19:22:48.024Z,10.53
2019-04-11T19:25:17.376Z,11.00
2019-04-11T19:27:50.452Z,10.58
2019-04-11T19:30:17.794Z,10.77
2019-04-11T19:32:47.138Z,11.55
2019-04-11T19:35:16.665Z,11.83
2019-04-11T19:37:46.028Z,11.18
2019-04-11T19:40:16.426Z,11.13
2019-04-11T19:42:48.874Z,11.00
2019-04-11T19:45:24.100Z,10.30
2019-04-11T19:48:01.602Z,10.58
2019-04-11T19:50:34.765Z,10.80
2019-04-11T19:53:18.828Z,11.00
2019-04-11T19:56:05.903Z,10.85
2019-04-11T19:58:35.355Z,10.48
2019-04-11T20:01:12.453Z,10.58
2019-04-11T20:03:40.684Z,10.50
2019-04-11T20:06:10.292Z,10.38
2019-04-11T20:08:47.731Z,11.65
2019-04-11T20:11:30.038Z,11.43
2019-04-11T20:14:02.890Z,11.83
2019-04-11T20:16:28.640Z,11.75
2019-04-11T20:19:05.954Z,11.40
2019-04-11T20:21:41.134Z,11.90
2019-04-11T20:24:14.369Z,11.15
2019-04-11T20:26:50.848Z,10.57
2019-04-11T20:29:21.378Z,10.60
2019-04-11T20:31:59.263Z,10.65
2019-04-11T20:34:30.246Z,10.05
2019-04-11T20:37:02.915Z,10.20
2019-04-11T20:39:33.529Z,10.05
2019-04-11T20:42:03.318Z,9.78
2019-04-11T20:44:34.837Z,9.80
2019-04-11T20:47:07.772Z,9.47
2019-04-11T20:49:46.042Z,9.88
2019-04-11T20:52:15.674Z,9.30
2019-04-11T20:54:48.753Z,9.53
2019-04-11T20:57:25.923Z,9.98
2019-04-11T20:59:55.147Z,9.40
2019-04-11T21:02:28.313Z,9.43
2019-04-11T21:04:56.353Z,9.83
2019-04-11T21:07:25.749Z,9.10
2019-04-11T21:09:56.462Z,9.65
2019-04-11T21:12:27.536Z,9.45
2019-04-11T21:14:57.029Z,9.73
2019-04-11T21:17:35.629Z,9.53
2019-04-11T21:20:31.809Z,9.25
2019-04-11T21:23:31.456Z,9.38
2019-04-11T21:26:34.046Z,9.00
2019-04-11T21:29:33.568Z,9.07
2019-04-11T21:32:55.697Z,9.65
2019-04-11T21:35:25.185Z,8.97
2019-04-11T21:37:54.531Z,9.30
2019-04-11T21:40:23.961Z,9.27
2019-04-11T21:42:54.864Z,9.30
2019-04-11T21:45:24.275Z,9.20
2019-04-11T21:47:53.612Z,9.63
2019-04-11T21:50:23.061Z,8.90
2019-04-11T21:52:52.408Z,9.05
2019-04-11T21:55:21.761Z,8.70
2019-04-11T21:57:51.118Z,8.45
2019-04-11T22:00:29.642Z,9.00
2019-04-11T22:02:59.112Z,8.35
2019-04-11T22:05:29.245Z,8.75
2019-04-11T22:08:00.884Z,8.88
2019-04-11T22:10:30.249Z,9.30
2019-04-11T22:12:59.570Z,9.38
2019-04-11T22:15:28.932Z,8.13
2019-04-11T22:17:58.296Z,8.75
2019-04-11T22:20:30.205Z,8.43
2019-04-11T22:22:59.507Z,8.27
2019-04-11T22:25:28.894Z,8.50
2019-04-11T22:27:58.241Z,8.90
2019-04-11T22:30:27.537Z,8.38
2019-04-11T22:33:01.340Z,8.25
2019-04-11T22:35:30.682Z,8.08
2019-04-11T22:38:00.406Z,8.05
2019-04-11T22:40:31.462Z,7.87
2019-04-11T22:43:00.682Z,8.60
2019-04-11T22:45:29.999Z,7.72
2019-04-11T22:47:59.298Z,7.85
2019-04-11T22:50:28.673Z,8.13
2019-04-11T22:52:58.099Z,8.80
2019-04-11T22:55:27.468Z,8.78
2019-04-11T22:57:56.795Z,8.40
2019-04-11T23:00:26.148Z,8.30
2019-04-11T23:03:17.637Z,8.03
2019-04-11T23:05:47.522Z,8.43
2019-04-11T23:08:19.068Z,8.10
2019-04-11T23:10:47.907Z,8.13
2019-04-11T23:13:17.207Z,8.83
2019-04-11T23:15:46.543Z,8.58
2019-04-11T23:18:15.840Z,7.65
2019-04-11T23:20:45.167Z,7.90
2019-04-11T23:23:14.556Z,7.65
2019-04-11T23:25:43.953Z,8.55
2019-04-11T23:28:15.575Z,8.20
2019-04-11T23:30:44.258Z,8.10
2019-04-11T23:33:13.556Z,7.85
2019-04-11T23:35:42.928Z,7.85
2019-04-11T23:38:12.212Z,8.10
2019-04-11T23:40:41.557Z,8.23
2019-04-11T23:43:10.856Z,8.00
2019-04-11T23:45:40.201Z,7.92
2019-04-11T23:48:09.503Z,7.65
2019-04-11T23:50:38.822Z,7.60
2019-04-11T23:53:08.095Z,7.53
2019-04-11T23:55:37.443Z,7.60
2019-04-11T23:58:06.780Z,7.42
